Time;durP1;ratioP1;P1;durP2;ratioP2;P2;SDS_P1;SDS_P2;PMS_P1;PMS_P2;Temp;Humidity;BMP_temperature;BMP_pressure;BME280_temperature;BME280_humidity;BME280_pressure;Samples;Min_cycle;Max_cycle;Signal;HPM_P1;HPM_P2
2022/01/16 00:00:14;;;;;;;83.38;32.25;;;2.40;99.90;;;;;;5011147;28;20527;-50
2022/01/16 00:05:29;;;;;;;81.70;30.08;;;2.50;99.90;;;;;;5012207;28;20045;-51
2022/01/16 00:07:56;;;;;;;80.97;29.52;;;2.40;99.90;;;;;;5012459;28;20049;-51
2022/01/16 00:10:24;;;;;;;70.85;28.27;;;2.40;99.90;;;;;;5012296;28;20050;-51
2022/01/16 00:12:52;;;;;;;71.43;29.52;;;2.40;99.90;;;;;;5012293;28;20042;-51
2022/01/16 00:15:20;;;;;;;67.57;28.40;;;2.30;99.90;;;;;;5011706;28;20398;-50
2022/01/16 00:20:31;;;;;;;65.32;27.05;;;2.30;99.90;;;;;;5011977;28;20073;-51
2022/01/16 00:22:57;;;;;;;62.95;26.10;;;2.30;99.90;;;;;;5001006;28;20096;-51
2022/01/16 00:25:23;;;;;;;67.00;26.75;;;2.20;99.90;;;;;;5008410;28;20526;-52
2022/01/16 00:27:50;;;;;;;65.38;26.25;;;2.20;99.90;;;;;;5012344;28;20038;-51
2022/01/16 00:30:17;;;;;;;65.85;25.77;;;2.20;99.90;;;;;;5012135;28;20102;-50
2022/01/16 00:32:42;;;;;;;69.30;27.05;;;2.10;99.90;;;;;;5009133;28;20038;-50
2022/01/16 00:35:09;;;;;;;73.05;28.75;;;2.10;99.90;;;;;;5010733;28;20070;-52
2022/01/16 00:37:34;;;;;;;74.07;29.23;;;2.10;99.90;;;;;;5012208;28;20044;-50
2022/01/16 00:40:00;;;;;;;75.00;28.17;;;2.10;99.90;;;;;;5011789;28;20033;-51
2022/01/16 00:42:25;;;;;;;82.75;29.40;;;2.10;99.90;;;;;;5011822;28;20045;-52
2022/01/16 00:44:51;;;;;;;80.10;28.15;;;2.10;99.90;;;;;;5011100;28;20561;-50
2022/01/16 00:47:17;;;;;;;77.65;29.02;;;2.10;99.90;;;;;;5004102;28;20070;-51
2022/01/16 00:49:43;;;;;;;80.85;30.27;;;2.10;99.90;;;;;;4991867;28;20113;-51
2022/01/16 00:52:10;;;;;;;79.13;29.83;;;2.10;99.90;;;;;;4993264;28;20442;-50
2022/01/16 00:54:38;;;;;;;84.35;31.20;;;2.20;99.90;;;;;;4993375;28;20049;-51
2022/01/16 00:57:04;;;;;;;86.68;30.02;;;2.20;99.90;;;;;;4992326;28;20038;-51
2022/01/16 00:59:30;;;;;;;81.50;29.95;;;2.20;99.90;;;;;;4991598;28;20069;-51
2022/01/16 01:01:55;;;;;;;84.28;30.13;;;2.20;99.90;;;;;;5000468;28;20038;-50
2022/01/16 01:04:21;;;;;;;91.53;32.88;;;2.30;99.90;;;;;;5001246;28;20040;-51
2022/01/16 01:06:49;;;;;;;80.78;29.67;;;2.30;99.90;;;;;;5011898;28;20049;-51
2022/01/16 01:09:14;;;;;;;86.65;31.45;;;2.30;99.90;;;;;;5011821;28;20069;-51
2022/01/16 01:11:42;;;;;;;99.30;33.67;;;2.20;99.90;;;;;;5011728;28;20096;-50
2022/01/16 01:14:16;;;;;;;99.78;33.80;;;2.20;99.90;;;;;;5010610;28;20045;-51
2022/01/16 01:19:18;;;;;;;92.03;34.00;;;2.20;99.90;;;;;;5011758;28;20077;-51
2022/01/16 01:21:44;;;;;;;97.22;33.17;;;2.30;99.90;;;;;;5011492;28;20045;-50
2022/01/16 01:24:09;;;;;;;101.07;33.47;;;2.30;99.90;;;;;;4987219;28;20035;-50
2022/01/16 01:26:36;;;;;;;106.13;34.15;;;2.30;99.90;;;;;;4993977;28;20045;-52
2022/01/16 01:29:03;;;;;;;105.75;35.17;;;2.30;99.90;;;;;;4987840;28;20074;-50
2022/01/16 01:31:30;;;;;;;109.25;35.75;;;2.30;99.90;;;;;;4986615;28;20467;-50
2022/01/16 01:33:56;;;;;;;121.30;36.83;;;2.30;99.90;;;;;;4996397;28;20046;-51
2022/01/16 01:36:21;;;;;;;106.20;36.35;;;2.40;99.90;;;;;;4990587;28;20046;-51
2022/01/16 01:38:47;;;;;;;102.43;35.97;;;2.40;99.90;;;;;;4983121;28;20039;-51
2022/01/16 01:41:13;;;;;;;108.20;36.25;;;2.40;99.90;;;;;;4992004;28;20121;-51
2022/01/16 01:51:37;;;;;;;106.97;35.13;;;2.40;99.90;;;;;;5002942;28;20080;-51
2022/01/16 01:54:05;;;;;;;110.20;34.80;;;2.40;99.90;;;;;;5000881;28;20078;-54
2022/01/16 01:56:31;;;;;;;113.60;35.53;;;2.40;99.90;;;;;;5002079;28;20039;-51
2022/01/16 01:59:00;;;;;;;116.80;34.10;;;2.40;99.90;;;;;;5006960;28;20107;-51
2022/01/16 02:01:27;;;;;;;116.50;35.55;;;2.40;99.90;;;;;;5011047;28;20454;-51
2022/01/16 02:03:53;;;;;;;129.68;36.85;;;2.50;99.90;;;;;;5006598;28;20049;-50
2022/01/16 02:06:26;;;;;;;121.40;35.22;;;2.50;99.90;;;;;;4997505;28;20045;-51
2022/01/16 02:08:54;;;;;;;144.30;38.80;;;2.50;99.90;;;;;;5013954;28;20030;-51
2022/01/16 02:11:25;;;;;;;122.60;35.17;;;2.50;99.90;;;;;;5005683;28;20069;-51
2022/01/16 02:30:37;;;;;;;105.78;35.78;;;2.50;99.90;;;;;;4994730;28;20049;-51
2022/01/16 02:32:50;;;;;;;120.78;34.17;;;2.50;99.90;;;;;;4998965;28;20044;-51
2022/01/16 02:35:15;;;;;;;116.40;35.35;;;2.60;99.90;;;;;;4995650;28;20034;-51
2022/01/16 02:37:41;;;;;;;123.70;35.30;;;2.60;99.90;;;;;;5009563;28;20072;-52
2022/01/16 02:40:16;;;;;;;108.20;33.95;;;2.60;99.90;;;;;;5001075;28;20145;-50
2022/01/16 02:42:48;;;;;;;120.20;36.17;;;2.70;99.90;;;;;;5003683;28;20466;-51
2022/01/16 02:45:27;;;;;;;114.70;33.78;;;2.70;99.90;;;;;;5007635;28;20037;-51
2022/01/16 02:47:52;;;;;;;110.97;33.80;;;2.60;99.90;;;;;;4995744;28;20044;-50
2022/01/16 02:50:18;;;;;;;122.05;34.72;;;2.60;99.90;;;;;;4999123;28;20046;-50
2022/01/16 02:52:44;;;;;;;119.28;33.75;;;2.60;99.90;;;;;;4997558;28;20117;-50
2022/01/16 02:55:13;;;;;;;132.40;36.42;;;2.60;99.90;;;;;;5012524;28;20034;-51
2022/01/16 02:57:39;;;;;;;114.30;34.65;;;2.60;99.90;;;;;;4994764;28;20121;-50
2022/01/16 03:00:05;;;;;;;121.82;34.72;;;2.50;99.90;;;;;;4994270;28;20458;-51
2022/01/16 03:02:30;;;;;;;114.68;34.40;;;2.50;99.90;;;;;;4994067;28;20087;-51
2022/01/16 03:04:56;;;;;;;116.82;32.75;;;2.60;99.90;;;;;;4994069;28;20502;-50
2022/01/16 03:07:22;;;;;;;115.65;34.60;;;2.50;99.90;;;;;;4993994;28;20483;-52
2022/01/16 03:12:47;;;;;;;130.15;35.58;;;2.50;99.90;;;;;;4990682;28;20042;-51
2022/01/16 03:15:14;;;;;;;136.88;35.55;;;2.50;99.90;;;;;;4994032;28;20046;-51
2022/01/16 03:21:52;;;;;;;118.93;35.10;;;2.50;99.90;;;;;;4997071;28;20042;-50
2022/01/16 03:23:12;;;;;;;132.95;34.97;;;2.60;99.90;;;;;;5009411;28;20576;-51
2022/01/16 03:25:38;;;;;;;113.20;34.17;;;2.60;99.90;;;;;;5005065;28;20035;-53
2022/01/16 03:28:04;;;;;;;120.32;34.20;;;2.60;99.90;;;;;;5013275;28;20092;-51
2022/01/16 03:30:30;;;;;;;120.18;34.28;;;2.60;99.90;;;;;;5006468;28;20046;-51
2022/01/16 03:32:55;;;;;;;119.43;33.42;;;2.60;99.90;;;;;;5004964;28;20044;-51
2022/01/16 03:35:21;;;;;;;115.82;34.13;;;2.60;99.90;;;;;;5010711;28;20045;-51
2022/01/16 03:37:47;;;;;;;120.97;35.80;;;2.70;99.90;;;;;;4993469;28;20050;-54
2022/01/16 03:40:13;;;;;;;99.85;31.75;;;2.70;99.90;;;;;;5013011;28;20072;-51
2022/01/16 03:42:40;;;;;;;121.15;35.08;;;2.60;99.90;;;;;;5012634;28;20038;-54
2022/01/16 03:45:07;;;;;;;125.32;35.05;;;2.70;99.90;;;;;;5012349;28;20034;-54
2022/01/16 03:47:33;;;;;;;112.53;34.42;;;2.70;99.90;;;;;;5012716;28;20033;-51
2022/01/16 03:49:59;;;;;;;113.57;33.55;;;2.70;99.90;;;;;;5012987;28;20044;-52
2022/01/16 03:52:25;;;;;;;114.68;34.17;;;2.70;99.90;;;;;;5011031;28;20176;-51
2022/01/16 03:54:51;;;;;;;120.80;35.83;;;2.70;99.90;;;;;;5008752;28;20673;-51
2022/01/16 03:57:16;;;;;;;105.18;32.47;;;2.80;99.90;;;;;;4993104;28;20046;-51
2022/01/16 03:59:42;;;;;;;110.03;32.72;;;2.80;99.90;;;;;;4993332;28;20046;-51
2022/01/16 04:02:07;;;;;;;108.75;35.30;;;2.80;99.90;;;;;;4993174;28;20380;-51
2022/01/16 04:04:33;;;;;;;127.97;36.40;;;2.80;99.90;;;;;;4992629;28;20450;-51
2022/01/16 04:07:01;;;;;;;109.40;34.70;;;2.80;99.90;;;;;;4993131;28;20037;-51
2022/01/16 04:09:28;;;;;;;101.32;34.55;;;2.80;99.90;;;;;;4993219;28;20510;-51
2022/01/16 04:11:56;;;;;;;109.68;33.88;;;2.80;99.90;;;;;;5011120;28;20498;-53
2022/01/16 04:15:31;;;;;;;112.60;34.67;;;2.90;99.90;;;;;;5012823;28;20071;-51
2022/01/16 04:17:20;;;;;;;107.63;34.55;;;2.90;99.90;;;;;;4973421;28;20078;-51
2022/01/16 04:19:47;;;;;;;115.40;34.17;;;2.90;99.90;;;;;;4973406;28;20049;-51
2022/01/16 04:22:14;;;;;;;114.43;34.08;;;2.90;99.90;;;;;;4973150;28;20105;-53
2022/01/16 04:24:40;;;;;;;115.60;35.58;;;3.00;99.90;;;;;;4992126;28;20037;-53
2022/01/16 04:27:06;;;;;;;114.07;34.85;;;2.90;99.90;;;;;;5012322;28;20041;-51
2022/01/16 04:29:32;;;;;;;116.03;35.22;;;3.00;99.90;;;;;;5010347;28;20034;-51
2022/01/16 04:31:58;;;;;;;102.80;32.63;;;3.00;99.90;;;;;;4992662;28;20121;-52
2022/01/16 04:34:23;;;;;;;114.15;35.38;;;3.00;99.90;;;;;;4992327;28;20074;-51
2022/01/16 04:36:49;;;;;;;102.95;31.92;;;3.00;99.90;;;;;;4992452;28;20042;-51
2022/01/16 04:39:18;;;;;;;103.15;33.83;;;3.00;99.90;;;;;;5002287;28;20513;-51
2022/01/16 04:44:29;;;;;;;93.50;32.47;;;3.00;99.90;;;;;;4992066;28;20039;-52
2022/01/16 04:46:55;;;;;;;102.63;32.72;;;3.00;99.90;;;;;;4992418;28;20038;-53
2022/01/16 04:49:21;;;;;;;101.47;34.40;;;3.00;99.90;;;;;;4992172;28;20519;-51
2022/01/16 04:51:47;;;;;;;100.32;32.55;;;3.00;99.90;;;;;;4992340;28;20050;-51
2022/01/16 04:54:13;;;;;;;110.85;34.08;;;3.00;99.90;;;;;;4991752;28;20040;-52
2022/01/16 04:56:39;;;;;;;102.82;34.80;;;3.10;99.90;;;;;;5001625;28;20498;-52
2022/01/16 04:59:04;;;;;;;97.60;34.45;;;3.10;99.90;;;;;;5012002;28;20085;-52
2022/01/16 05:01:30;;;;;;;103.35;35.20;;;3.10;99.90;;;;;;5011785;28;20034;-50
2022/01/16 05:03:56;;;;;;;100.40;32.60;;;3.10;99.90;;;;;;5011467;28;20052;-53
2022/01/16 05:06:21;;;;;;;104.30;35.58;;;3.10;99.90;;;;;;5000876;28;20037;-51
2022/01/16 05:08:47;;;;;;;103.57;33.63;;;3.10;99.90;;;;;;4974486;28;20415;-52
2022/01/16 05:11:15;;;;;;;111.53;35.42;;;3.10;99.90;;;;;;4992337;28;20066;-52
2022/01/16 05:18:53;;;;;;;105.32;33.80;;;3.10;99.90;;;;;;4992314;28;20140;-51
2022/01/16 05:21:19;;;;;;;110.82;35.47;;;3.10;99.90;;;;;;4995505;28;20514;-50
2022/01/16 05:23:45;;;;;;;113.90;35.10;;;3.10;99.90;;;;;;4999485;28;20445;-52
2022/01/16 05:26:12;;;;;;;114.20;35.22;;;3.10;99.90;;;;;;5008367;28;20034;-50
2022/01/16 05:28:38;;;;;;;122.40;35.65;;;3.10;99.90;;;;;;5015384;28;20050;-52
2022/01/16 05:31:04;;;;;;;106.28;35.10;;;3.10;99.90;;;;;;4981613;28;20136;-51
2022/01/16 05:33:30;;;;;;;111.13;35.90;;;3.10;99.90;;;;;;5000853;28;20038;-51
2022/01/16 05:35:56;;;;;;;109.25;34.33;;;3.20;99.90;;;;;;5015585;28;20046;-52
2022/01/16 05:38:22;;;;;;;117.20;36.55;;;3.10;99.90;;;;;;5014740;28;20038;-51
2022/01/16 05:40:47;;;;;;;128.63;36.60;;;3.20;99.90;;;;;;5015358;28;20544;-51
2022/01/16 05:43:13;;;;;;;123.80;38.10;;;3.20;99.90;;;;;;5015150;28;20056;-52
2022/01/16 05:45:39;;;;;;;118.35;35.38;;;3.20;99.90;;;;;;5015174;28;20034;-50
2022/01/16 05:48:04;;;;;;;122.93;36.40;;;3.20;99.90;;;;;;5010573;28;20080;-52
2022/01/16 05:50:31;;;;;;;132.20;36.85;;;3.20;99.90;;;;;;4995610;28;20117;-52
2022/01/16 05:52:57;;;;;;;117.70;36.22;;;3.20;99.90;;;;;;4995074;28;20133;-51
2022/01/16 05:55:26;;;;;;;121.68;34.80;;;3.20;99.90;;;;;;4995543;28;20046;-51
2022/01/16 05:57:52;;;;;;;134.48;36.60;;;3.20;99.90;;;;;;4995476;28;20113;-50
2022/01/16 06:00:18;;;;;;;135.35;37.80;;;3.20;99.90;;;;;;4995569;28;20121;-51
2022/01/16 06:02:43;;;;;;;135.55;36.03;;;3.20;99.90;;;;;;4994943;28;20034;-51
2022/01/16 06:05:09;;;;;;;120.35;36.28;;;3.20;99.90;;;;;;4995722;28;20066;-49
2022/01/16 06:07:35;;;;;;;133.20;35.83;;;3.20;99.90;;;;;;4995072;28;20570;-48
2022/01/16 06:10:01;;;;;;;125.10;36.97;;;3.20;99.90;;;;;;4995284;28;20141;-48
2022/01/16 06:12:27;;;;;;;130.90;37.55;;;3.20;99.90;;;;;;4977619;28;20132;-51
2022/01/16 06:14:52;;;;;;;139.10;36.78;;;3.20;99.90;;;;;;4995140;28;20078;-49
2022/01/16 06:17:18;;;;;;;136.57;37.60;;;3.30;99.90;;;;;;4995083;28;20566;-48
2022/01/16 06:19:43;;;;;;;133.73;38.50;;;3.30;99.90;;;;;;4995271;28;20049;-49
2022/01/16 06:22:09;;;;;;;127.47;36.78;;;3.30;99.90;;;;;;4994561;28;20039;-48
2022/01/16 06:24:34;;;;;;;139.43;36.90;;;3.30;99.90;;;;;;4994793;28;20038;-48
2022/01/16 06:27:00;;;;;;;128.02;37.83;;;3.30;99.90;;;;;;4994911;28;20066;-50
2022/01/16 06:29:26;;;;;;;127.70;36.80;;;3.40;99.90;;;;;;4994931;28;20586;-49
2022/01/16 06:31:51;;;;;;;140.27;37.20;;;3.40;99.90;;;;;;4994372;28;20502;-48
2022/01/16 06:34:17;;;;;;;139.27;38.95;;;3.40;99.90;;;;;;4994808;28;20034;-51
2022/01/16 06:36:42;;;;;;;113.50;34.85;;;3.40;99.90;;;;;;4994644;28;20077;-49
2022/01/16 06:39:11;;;;;;;129.32;37.25;;;3.40;99.90;;;;;;4994698;28;20049;-51
2022/01/16 06:41:37;;;;;;;125.50;35.45;;;3.40;99.90;;;;;;4994602;28;20058;-48
2022/01/16 06:44:04;;;;;;;124.35;37.05;;;3.40;99.90;;;;;;4994123;28;20078;-48
2022/01/16 06:46:30;;;;;;;139.98;38.22;;;3.40;99.90;;;;;;4994721;28;20046;-48
2022/01/16 06:48:55;;;;;;;128.48;36.00;;;3.40;99.90;;;;;;4994483;28;20487;-48
2022/01/16 06:51:23;;;;;;;130.85;38.00;;;3.50;99.90;;;;;;4994395;28;20101;-48
2022/01/16 06:53:50;;;;;;;123.50;37.10;;;3.50;99.90;;;;;;4994274;28;20511;-49
2022/01/16 06:56:17;;;;;;;135.20;38.20;;;3.50;99.90;;;;;;4994440;28;20469;-48
2022/01/16 06:58:43;;;;;;;120.45;37.38;;;3.50;99.90;;;;;;5002297;28;20409;-51
2022/01/16 07:01:09;;;;;;;120.90;36.63;;;3.50;99.90;;;;;;5013878;28;20045;-52
2022/01/16 07:03:35;;;;;;;130.27;37.10;;;3.50;99.90;;;;;;5013222;28;20050;-48
2022/01/16 07:06:01;;;;;;;129.25;36.50;;;3.50;99.90;;;;;;5012866;28;20508;-48
2022/01/16 07:08:30;;;;;;;125.38;37.40;;;3.60;99.90;;;;;;4996723;28;20049;-48
2022/01/16 07:10:57;;;;;;;140.65;39.42;;;3.50;99.90;;;;;;5012754;28;20486;-48
2022/01/16 07:13:23;;;;;;;137.90;39.35;;;3.60;99.90;;;;;;5013548;28;20049;-51
2022/01/16 07:15:49;;;;;;;129.20;38.15;;;3.60;99.90;;;;;;5013693;28;20034;-48
2022/01/16 07:18:16;;;;;;;129.50;36.78;;;3.60;99.90;;;;;;5013613;28;20046;-48
2022/01/16 07:20:43;;;;;;;119.07;35.78;;;3.60;99.90;;;;;;5010771;28;20422;-48
2022/01/16 07:23:10;;;;;;;124.15;36.35;;;3.60;99.90;;;;;;4993577;28;20045;-49
2022/01/16 07:25:35;;;;;;;110.47;35.58;;;3.70;99.90;;;;;;4993824;28;20446;-48
2022/01/16 07:28:01;;;;;;;122.85;37.78;;;3.70;99.90;;;;;;4995819;28;20039;-51
2022/01/16 07:30:27;;;;;;;127.97;37.45;;;3.80;99.90;;;;;;5013243;28;20083;-48
2022/01/16 07:32:52;;;;;;;123.68;37.63;;;3.80;99.90;;;;;;4995416;28;20068;-50
2022/01/16 07:35:18;;;;;;;113.50;36.50;;;3.90;99.90;;;;;;5012455;28;20086;-48
2022/01/16 07:37:43;;;;;;;124.70;37.67;;;3.90;99.90;;;;;;5013244;28;20048;-48
2022/01/16 07:40:10;;;;;;;124.80;37.90;;;3.90;99.90;;;;;;5012956;28;20502;-49
2022/01/16 07:42:36;;;;;;;124.13;39.10;;;3.90;99.90;;;;;;5011737;28;20149;-52
2022/01/16 07:45:02;;;;;;;121.88;37.78;;;4.00;99.90;;;;;;5012524;28;20042;-52
2022/01/16 07:47:28;;;;;;;121.05;38.10;;;4.00;99.90;;;;;;5012924;28;20485;-49
2022/01/16 07:49:53;;;;;;;117.28;38.03;;;4.00;99.90;;;;;;5007299;28;20045;-52
2022/01/16 07:52:19;;;;;;;120.43;39.20;;;4.10;99.90;;;;;;5010369;28;20509;-49
2022/01/16 07:54:45;;;;;;;115.35;37.65;;;4.20;99.90;;;;;;5012752;28;20490;-48
2022/01/16 07:57:10;;;;;;;107.90;36.90;;;4.20;99.90;;;;;;5012182;28;20050;-50
2022/01/16 07:59:36;;;;;;;111.72;38.53;;;4.20;99.90;;;;;;5012859;28;20045;-53
2022/01/16 08:02:02;;;;;;;117.93;38.45;;;4.30;99.90;;;;;;5004437;28;20480;-48
2022/01/16 08:04:28;;;;;;;107.65;37.05;;;4.30;99.90;;;;;;4992875;28;20038;-48
2022/01/16 08:06:53;;;;;;;108.95;38.08;;;4.40;99.90;;;;;;4994167;28;20060;-48
2022/01/16 08:09:19;;;;;;;111.97;37.63;;;4.50;99.90;;;;;;5002866;28;20069;-49
2022/01/16 08:11:44;;;;;;;104.50;37.17;;;4.50;99.90;;;;;;5012890;28;20038;-50
2022/01/16 08:14:10;;;;;;;103.00;37.28;;;4.50;99.90;;;;;;5012181;28;20053;-48
2022/01/16 08:16:35;;;;;;;100.30;36.53;;;4.60;99.90;;;;;;5012649;28;20088;-49
2022/01/16 08:19:01;;;;;;;94.25;35.08;;;4.60;99.90;;;;;;5011677;28;20048;-51
2022/01/16 08:21:26;;;;;;;92.93;37.38;;;4.60;99.90;;;;;;5012349;28;20053;-52
2022/01/16 08:23:52;;;;;;;95.28;36.53;;;4.70;99.90;;;;;;5002737;28;20042;-51
2022/01/16 08:26:17;;;;;;;97.20;36.28;;;4.70;99.90;;;;;;4993096;28;20045;-51
2022/01/16 08:28:43;;;;;;;97.28;37.15;;;4.70;99.90;;;;;;4992852;28;20046;-51
2022/01/16 08:31:08;;;;;;;89.65;35.17;;;4.70;99.90;;;;;;4992771;28;20042;-52
2022/01/16 08:33:34;;;;;;;80.90;34.40;;;4.70;99.90;;;;;;4990596;28;20411;-51
2022/01/16 08:36:00;;;;;;;97.90;35.88;;;4.80;99.90;;;;;;4999767;28;20487;-51
2022/01/16 08:38:27;;;;;;;86.97;34.25;;;4.80;99.90;;;;;;5005822;28;20046;-51
2022/01/16 08:40:53;;;;;;;84.25;35.50;;;4.70;99.90;;;;;;5000607;28;20042;-52
2022/01/16 08:43:18;;;;;;;91.00;35.17;;;4.80;99.90;;;;;;5008375;28;20080;-51
2022/01/16 08:45:45;;;;;;;90.38;34.75;;;4.80;99.90;;;;;;4993178;28;20041;-51
2022/01/16 08:48:11;;;;;;;84.00;34.88;;;4.80;99.90;;;;;;4991997;28;20045;-51
2022/01/16 08:50:38;;;;;;;84.25;36.03;;;4.80;99.90;;;;;;4995444;28;20038;-54
2022/01/16 08:53:04;;;;;;;84.68;34.10;;;4.80;99.90;;;;;;5001033;28;20117;-51
2022/01/16 08:55:31;;;;;;;79.45;33.25;;;4.90;99.90;;;;;;4998382;28;20062;-53
2022/01/16 08:57:59;;;;;;;81.70;34.08;;;4.90;99.90;;;;;;5008419;28;20033;-51
2022/01/16 09:00:25;;;;;;;87.43;35.28;;;4.90;99.90;;;;;;4985034;28;20047;-55
2022/01/16 09:02:50;;;;;;;76.30;33.70;;;4.90;99.90;;;;;;4997839;28;20042;-55
2022/01/16 09:05:16;;;;;;;90.55;34.40;;;4.90;99.90;;;;;;4993168;28;20042;-55
2022/01/16 09:07:42;;;;;;;83.03;33.80;;;5.00;99.90;;;;;;4992506;28;20030;-54
2022/01/16 09:10:08;;;;;;;72.00;33.70;;;5.00;99.90;;;;;;4992206;28;20030;-54
2022/01/16 09:12:35;;;;;;;83.10;33.80;;;5.00;99.90;;;;;;4991975;28;20719;-52
2022/01/16 09:15:05;;;;;;;83.22;35.33;;;5.00;99.90;;;;;;5002862;28;20038;-52
2022/01/16 09:17:30;;;;;;;77.30;34.60;;;5.00;99.90;;;;;;4995979;28;20514;-52
2022/01/16 09:19:56;;;;;;;77.00;33.22;;;5.10;99.90;;;;;;4992070;28;20042;-54
2022/01/16 09:22:21;;;;;;;72.32;34.13;;;5.10;99.90;;;;;;4991763;28;20047;-51
2022/01/16 09:24:47;;;;;;;75.03;34.10;;;5.10;99.90;;;;;;4997743;28;20022;-53
2022/01/16 09:27:12;;;;;;;71.88;33.45;;;5.10;99.90;;;;;;5000490;28;20034;-54
2022/01/16 09:29:38;;;;;;;72.55;33.45;;;5.10;99.90;;;;;;5002823;28;20034;-54
2022/01/16 09:32:05;;;;;;;75.22;34.15;;;5.10;99.90;;;;;;4989927;28;20081;-53
2022/01/16 09:34:30;;;;;;;76.22;33.65;;;5.20;99.90;;;;;;4986772;28;20051;-52
2022/01/16 09:36:56;;;;;;;72.85;33.15;;;5.20;99.90;;;;;;4999965;28;20388;-55
2022/01/16 09:39:21;;;;;;;65.88;32.35;;;5.20;99.90;;;;;;4989825;28;20050;-53
2022/01/16 09:41:47;;;;;;;71.25;31.38;;;5.20;99.90;;;;;;4990413;28;20049;-54
2022/01/16 09:44:15;;;;;;;66.60;31.90;;;5.20;99.90;;;;;;4991603;28;20069;-54
2022/01/16 09:46:40;;;;;;;64.22;32.47;;;5.30;99.90;;;;;;4991889;28;20046;-54
2022/01/16 09:49:06;;;;;;;71.80;31.85;;;5.30;99.90;;;;;;4994757;28;20498;-52
2022/01/16 09:51:31;;;;;;;65.03;31.50;;;5.30;99.90;;;;;;5011649;28;20041;-54
2022/01/16 09:53:58;;;;;;;63.42;31.35;;;5.30;99.90;;;;;;5011265;28;20049;-54
2022/01/16 09:56:24;;;;;;;62.63;29.75;;;5.30;99.90;;;;;;5011498;28;20049;-55
2022/01/16 09:58:50;;;;;;;62.85;30.20;;;5.30;99.90;;;;;;5011311;28;20046;-55
2022/01/16 10:01:16;;;;;;;56.63;29.15;;;5.30;99.90;;;;;;5006907;28;20049;-55
2022/01/16 10:03:44;;;;;;;60.55;29.55;;;5.40;99.90;;;;;;5004386;28;20045;-51
2022/01/16 10:06:21;;;;;;;61.85;30.60;;;5.40;99.90;;;;;;5011111;28;20042;-52
2022/01/16 10:08:48;;;;;;;57.40;29.20;;;5.40;99.90;;;;;;5015003;28;20128;-55
2022/01/16 10:11:28;;;;;;;62.42;30.25;;;5.40;99.90;;;;;;5014728;28;20042;-52
2022/01/16 10:14:02;;;;;;;54.28;27.20;;;5.40;99.90;;;;;;4997213;28;20060;-52
2022/01/16 10:16:35;;;;;;;54.38;26.35;;;5.50;99.90;;;;;;5014492;28;20058;-52
2022/01/16 10:19:01;;;;;;;55.53;27.20;;;5.50;99.90;;;;;;5002406;28;20070;-52
2022/01/16 10:21:36;;;;;;;51.97;26.73;;;5.50;99.90;;;;;;4994808;28;20050;-53
2022/01/16 10:24:25;;;;;;;49.20;26.33;;;5.50;99.90;;;;;;4994603;28;20549;-52
2022/01/16 10:27:15;;;;;;;47.90;24.70;;;5.50;99.90;;;;;;4994774;28;20042;-52
2022/01/16 10:29:51;;;;;;;45.38;23.73;;;5.60;99.90;;;;;;4994963;28;20042;-52
2022/01/16 10:32:24;;;;;;;46.03;24.02;;;5.60;99.90;;;;;;4994632;28;20514;-52
2022/01/16 10:34:53;;;;;;;45.63;22.02;;;5.70;99.90;;;;;;4975320;28;20043;-52
2022/01/16 10:37:25;;;;;;;42.58;23.50;;;5.70;99.90;;;;;;4958291;28;20050;-52
2022/01/16 10:39:58;;;;;;;41.05;21.50;;;5.70;99.90;;;;;;4975311;28;20038;-52
2022/01/16 10:42:24;;;;;;;;;;;5.80;99.90;;;;;;4975309;28;20518;-54
2022/01/16 10:45:05;;;;;;;41.67;21.30;;;5.80;99.90;;;;;;4975114;28;19918;-53
2022/01/16 10:47:54;;;;;;;48.33;21.20;;;5.80;99.90;;;;;;4982549;28;20492;-52
2022/01/16 10:50:47;;;;;;;41.58;21.10;;;5.80;99.90;;;;;;4994343;28;20042;-52
2022/01/16 10:53:12;;;;;;;;;;;5.90;99.90;;;;;;4990938;28;20042;-52
2022/01/16 10:55:53;;;;;;;36.25;19.40;;;5.90;99.90;;;;;;4994258;28;19918;-54
2022/01/16 10:58:20;;;;;;;35.17;19.42;;;5.90;99.90;;;;;;4994167;28;20039;-54
2022/01/16 11:00:59;;;;;;;38.72;19.17;;;5.90;99.90;;;;;;4994381;28;20046;-52
2022/01/16 11:03:26;;;;;;;34.83;17.95;;;5.90;99.90;;;;;;4993569;28;20406;-52
2022/01/16 11:05:52;;;;;;;35.58;18.33;;;6.00;99.90;;;;;;4994180;28;20039;-51
2022/01/16 11:08:20;;;;;;;34.60;17.92;;;6.00;99.90;;;;;;4993994;28;20039;-52
2022/01/16 11:10:51;;;;;;;33.03;17.38;;;6.00;99.90;;;;;;4993934;28;20045;-52
2022/01/16 11:13:19;;;;;;;32.90;17.63;;;6.00;99.90;;;;;;4993717;28;20404;-52
2022/01/16 11:15:48;;;;;;;32.30;17.40;;;6.10;99.90;;;;;;4994216;28;20081;-52
2022/01/16 11:18:14;;;;;;;29.02;15.90;;;6.10;99.90;;;;;;4993798;28;20054;-53
2022/01/16 11:20:40;;;;;;;31.45;15.85;;;6.10;99.90;;;;;;4990953;28;20100;-52
2022/01/16 11:26:06;;;;;;;31.13;15.98;;;6.20;99.90;;;;;;4960787;28;20035;-53
2022/01/16 11:28:32;;;;;;;33.55;15.80;;;6.20;99.90;;;;;;4998642;28;20607;-55
2022/01/16 11:31:00;;;;;;;28.75;14.20;;;6.30;99.90;;;;;;4990588;28;20113;-53
2022/01/16 11:33:28;;;;;;;30.70;13.75;;;6.30;99.90;;;;;;4995000;28;20042;-53
2022/01/16 11:36:14;;;;;;;34.13;16.23;;;6.30;99.90;;;;;;4999820;28;20088;-55
2022/01/16 11:38:55;;;;;;;30.77;15.13;;;6.30;99.90;;;;;;5008345;28;20046;-55
2022/01/16 11:41:32;;;;;;;27.70;14.90;;;6.30;99.90;;;;;;5003939;28;20136;-54
2022/01/16 11:44:00;;;;;;;24.35;14.77;;;6.30;99.90;;;;;;5000272;28;20038;-55
2022/01/16 11:46:27;;;;;;;31.60;15.07;;;6.30;99.90;;;;;;4996302;28;20038;-54
2022/01/16 11:49:04;;;;;;;27.98;14.77;;;6.30;99.90;;;;;;4992505;28;20049;-53
2022/01/16 11:51:37;;;;;;;28.92;15.20;;;6.30;99.90;;;;;;4984154;28;20073;-55
2022/01/16 11:54:24;;;;;;;28.02;15.60;;;6.30;99.90;;;;;;4987935;28;20093;-52
2022/01/16 11:57:02;;;;;;;27.45;14.65;;;6.30;99.90;;;;;;4983889;28;20038;-53
2022/01/16 11:59:34;;;;;;;29.90;15.52;;;6.40;99.90;;;;;;4990202;28;20117;-53
2022/01/16 12:02:02;;;;;;;28.60;14.88;;;6.40;99.90;;;;;;4989519;28;20562;-52
2022/01/16 12:04:30;;;;;;;23.58;14.23;;;6.40;99.90;;;;;;4985026;28;20053;-52
2022/01/16 12:07:20;;;;;;;26.67;14.20;;;6.40;99.90;;;;;;5028494;23;20037;-50
2022/01/16 12:09:57;;;;;;;28.15;14.60;;;6.40;99.90;;;;;;5008397;28;20034;-50
2022/01/16 12:12:23;;;;;;;24.45;14.38;;;6.40;99.90;;;;;;4969879;28;20501;-51
2022/01/16 12:15:08;;;;;;;27.40;14.43;;;6.40;99.90;;;;;;5012534;28;20091;-51
2022/01/16 12:17:44;;;;;;;21.25;13.55;;;6.50;99.90;;;;;;4962164;28;20041;-52
2022/01/16 12:22:47;;;;;;;22.67;12.35;;;6.50;99.90;;;;;;5006721;28;20053;-55
2022/01/16 12:25:42;;;;;;;24.83;13.18;;;6.60;99.90;;;;;;5015099;28;20073;-54
2022/01/16 12:28:11;;;;;;;24.75;13.02;;;6.60;99.90;;;;;;5006911;28;20131;-55
2022/01/16 12:31:03;;;;;;;25.98;13.32;;;6.60;99.90;;;;;;5011975;28;20493;-53
2022/01/16 12:33:42;;;;;;;26.17;12.90;;;6.60;99.90;;;;;;5009981;28;20046;-55
2022/01/16 12:36:19;;;;;;;26.30;12.63;;;6.60;99.90;;;;;;5008084;28;20041;-52
2022/01/16 12:38:51;;;;;;;24.17;12.20;;;6.70;99.90;;;;;;5014445;28;20076;-52
2022/01/16 12:41:21;;;;;;;28.15;11.25;;;6.70;99.90;;;;;;4990824;28;20041;-52
2022/01/16 12:44:05;;;;;;;21.50;9.23;;;6.70;99.90;;;;;;5008362;28;20567;-53
2022/01/16 12:46:35;;;;;;;15.88;8.85;;;6.80;99.90;;;;;;5009444;28;20521;-55
2022/01/16 12:49:08;;;;;;;20.33;8.55;;;6.80;99.90;;;;;;5010976;28;20029;-54
2022/01/16 12:51:34;;;;;;;;;;;6.90;99.90;;;;;;5011241;28;20088;-53
2022/01/16 12:54:04;;;;;;;15.45;7.88;;;6.90;99.90;;;;;;4993284;28;19971;-53
2022/01/16 12:56:34;;;;;;;16.88;8.38;;;7.00;99.90;;;;;;5009828;28;20037;-52
2022/01/16 12:59:22;;;;;;;18.70;7.90;;;7.00;99.90;;;;;;5011511;28;20037;-53
2022/01/16 13:01:52;;;;;;;19.90;8.30;;;7.00;99.90;;;;;;5017356;28;20046;-52
2022/01/16 13:04:18;;;;;;;15.93;7.93;;;7.10;99.90;;;;;;4975933;28;20041;-52
2022/01/16 13:06:43;;;;;;;18.35;8.13;;;7.10;99.90;;;;;;5011623;28;20038;-52
2022/01/16 13:09:11;;;;;;;24.58;8.60;;;7.10;99.90;;;;;;5008095;28;20549;-53
2022/01/16 13:11:43;;;;;;;15.77;7.72;;;7.10;99.90;;;;;;4992786;28;20050;-53
2022/01/16 13:14:12;;;;;;;20.30;8.35;;;7.10;99.90;;;;;;5009687;28;20061;-53
2022/01/16 13:16:47;;;;;;;18.20;8.35;;;7.20;99.90;;;;;;5008498;28;20054;-51
2022/01/16 13:19:18;;;;;;;14.88;7.53;;;7.20;99.90;;;;;;5013121;28;20041;-53
2022/01/16 13:21:59;;;;;;;20.80;8.27;;;7.20;99.90;;;;;;5009302;28;20030;-53
2022/01/16 13:24:31;;;;;;;21.98;8.32;;;7.20;99.90;;;;;;5009919;28;20049;-51
2022/01/16 13:26:58;;;;;;;19.80;7.13;;;7.20;99.90;;;;;;4987373;28;20401;-49
2022/01/16 13:29:23;;;;;;;20.23;7.78;;;7.20;99.90;;;;;;5011052;28;20112;-52